Time;durP1;ratioP1;P1;durP2;ratioP2;P2;SDS_P1;SDS_P2;PMS_P1;PMS_P2;Temp;Humidity;BMP_temperature;BMP_pressure;BME280_temperature;BME280_humidity;BME280_pressure;Samples;Min_cycle;Max_cycle;Signal;HPM_P1;HPM_P2
2023/09/07 00:01:36;;;;;;;9.13;8.38;;;;;;;18.97;100.00;63959.22;4833346;29;20224;-76
2023/09/07 00:04:03;;;;;;;10.15;8.25;;;;;;;19.00;100.00;63965.44;4827065;29;20276;-76
2023/09/07 00:06:30;;;;;;;9.68;8.60;;;;;;;18.94;100.00;63959.22;4832210;29;20229;-77
2023/09/07 00:08:57;;;;;;;9.75;8.70;;;;;;;18.91;100.00;63956.09;4828791;29;20209;-76
2023/09/07 00:11:25;;;;;;;11.20;9.13;;;;;;;18.94;100.00;63959.22;4834596;29;20232;-77
2023/09/07 00:13:52;;;;;;;9.68;8.68;;;;;;;19.00;100.00;63960.28;4826364;29;20221;-77
2023/09/07 00:16:19;;;;;;;10.02;8.95;;;;;;;19.03;100.00;63968.59;4827562;29;20228;-77
2023/09/07 00:18:47;;;;;;;8.85;7.97;;;;;;;18.93;100.00;63960.72;4831674;29;20240;-77
2023/09/07 00:21:13;;;;;;;9.90;9.00;;;;;;;18.92;100.00;63959.69;4834830;29;20240;-76
2023/09/07 00:23:41;;;;;;;10.35;9.32;;;;;;;18.82;100.00;63946.16;4845482;29;20233;-77
2023/09/07 00:26:08;;;;;;;10.38;9.38;;;;;;;18.76;100.00;63942.50;4825256;29;20499;-78
2023/09/07 00:28:36;;;;;;;11.45;10.25;;;;;;;18.71;100.00;63934.69;4825474;29;20393;-76
2023/09/07 00:31:03;;;;;;;11.80;10.27;;;;;;;18.53;100.00;63916.47;4834209;29;20241;-77
2023/09/07 00:33:30;;;;;;;12.82;11.52;;;;;;;18.34;100.00;63896.66;4832960;29;20205;-77
2023/09/07 00:35:57;;;;;;;12.48;11.32;;;;;;;18.27;100.00;63889.34;4832630;29;20236;-77
2023/09/07 00:38:24;;;;;;;16.10;12.88;;;;;;;18.19;100.00;63878.97;4834273;29;20243;-76
2023/09/07 00:40:51;;;;;;;16.88;14.10;;;;;;;18.12;100.00;63873.72;4831685;29;20229;-75
2023/09/07 00:43:18;;;;;;;14.65;13.25;;;;;;;18.06;100.00;63864.91;4826912;29;20212;-77
2023/09/07 00:45:46;;;;;;;16.13;14.43;;;;;;;18.06;100.00;63867.47;4833482;29;20225;-76
2023/09/07 00:48:13;;;;;;;17.30;14.70;;;;;;;18.09;100.00;63870.59;4827034;29;20521;-76
2023/09/07 00:50:40;;;;;;;16.70;15.02;;;;;;;18.12;100.00;63874.25;4832169;29;20225;-76
2023/09/07 00:53:08;;;;;;;17.73;15.00;;;;;;;18.12;100.00;63876.81;4831601;29;20213;-77
2023/09/07 00:55:36;;;;;;;17.75;15.18;;;;;;;18.15;100.00;63871.69;4836681;29;20243;-76
2023/09/07 00:58:05;;;;;;;17.17;15.32;;;;;;;18.23;100.00;63882.59;4841652;29;20284;-77
2023/09/07 01:00:32;;;;;;;16.42;14.80;;;;;;;18.32;100.00;63897.16;4835494;29;20244;-76
2023/09/07 01:03:00;;;;;;;17.58;15.63;;;;;;;18.25;100.00;63887.78;4836751;29;20432;-77
2023/09/07 01:05:33;;;;;;;21.67;15.77;;;;;;;18.35;100.00;63900.25;4829676;29;20229;-77
2023/09/07 01:08:08;;;;;;;18.25;15.85;;;;;;;18.37;100.00;63897.19;4840506;29;20368;-77
2023/09/07 01:10:35;;;;;;;19.20;17.13;;;;;;;18.37;100.00;63900.31;4837550;29;20230;-76
2023/09/07 01:13:02;;;;;;;19.17;14.93;;;;;;;18.43;100.00;63903.47;4825573;29;20217;-75
2023/09/07 01:15:29;;;;;;;18.98;16.95;;;;;;;18.45;100.00;63905.53;4817928;29;20315;-75
2023/09/07 01:17:59;;;;;;;19.30;15.18;;;;;;;18.47;100.00;63909.69;4838453;29;20299;-76
2023/09/07 01:20:27;;;;;;;20.60;17.20;;;;;;;18.47;100.00;63909.69;4831057;29;20638;-77
2023/09/07 01:22:56;;;;;;;19.35;17.45;;;;;;;18.51;100.00;63911.81;4834616;29;20225;-75
2023/09/07 01:25:24;;;;;;;20.98;17.63;;;;;;;18.47;100.00;63910.22;4835257;29;20288;-76
2023/09/07 01:27:51;;;;;;;21.90;18.20;;;;;;;18.53;100.00;63918.53;4827206;29;20214;-75
2023/09/07 01:30:19;;;;;;;22.27;18.85;;;;;;;18.49;100.00;63912.28;4824826;29;20232;-76
2023/09/07 01:32:46;;;;;;;21.00;18.30;;;;;;;18.47;100.00;63909.69;4831868;29;20258;-75
2023/09/07 01:35:16;;;;;;;21.35;19.05;;;;;;;18.53;100.00;63916.47;4832283;29;20300;-75
2023/09/07 01:37:43;;;;;;;22.95;18.92;;;;;;;18.55;100.00;63915.97;4840197;29;20236;-76
2023/09/07 01:40:11;;;;;;;23.45;19.38;;;;;;;18.58;100.00;63919.09;4820254;29;20259;-76
2023/09/07 01:42:38;;;;;;;23.83;18.92;;;;;;;18.55;100.00;63921.13;4825420;29;20233;-76
2023/09/07 01:45:06;;;;;;;24.67;18.58;;;;;;;18.54;100.00;63911.81;4832232;29;20229;-76
2023/09/07 01:47:33;;;;;;;23.23;18.88;;;;;;;18.44;100.00;63907.09;4823446;29;20214;-76
2023/09/07 01:50:00;;;;;;;24.80;17.58;;;;;;;18.47;100.00;63907.63;4823119;29;20229;-75
2023/09/07 01:52:27;;;;;;;19.20;17.15;;;;;;;18.49;100.00;63909.72;4843118;29;20213;-76
2023/09/07 01:54:53;;;;;;;20.27;17.48;;;;;;;18.60;100.00;63925.81;4838922;29;20265;-75
2023/09/07 01:57:21;;;;;;;20.77;18.10;;;;;;;18.49;100.00;63911.78;4842088;29;20229;-76
2023/09/07 01:59:49;;;;;;;20.05;16.33;;;;;;;18.51;100.00;63911.81;4837153;29;20567;-77
2023/09/07 02:02:16;;;;;;;18.88;16.88;;;;;;;18.59;100.00;63917.03;4826695;29;20219;-76
2023/09/07 02:04:45;;;;;;;18.30;16.45;;;;;;;18.64;100.00;63930.50;4832014;29;20612;-76
2023/09/07 02:07:13;;;;;;;17.92;16.08;;;;;;;18.71;100.00;63932.13;4836168;29;20213;-76
2023/09/07 02:09:40;;;;;;;18.02;16.13;;;;;;;18.73;100.00;63934.72;4835947;29;20233;-76
2023/09/07 02:12:07;;;;;;;18.75;15.88;;;;;;;18.73;100.00;63934.19;4833569;29;20209;-75
2023/09/07 02:14:35;;;;;;;20.48;15.57;;;;;;;18.74;100.00;63935.75;4828005;29;20205;-75
2023/09/07 02:17:02;;;;;;;19.35;15.98;;;;;;;18.79;100.00;63938.41;4828700;29;20221;-75
2023/09/07 02:19:29;;;;;;;18.40;15.82;;;;;;;18.82;100.00;63943.59;4831139;29;20256;-76
2023/09/07 02:21:56;;;;;;;16.83;15.02;;;;;;;18.84;100.00;63945.69;4828451;29;20216;-76
2023/09/07 02:24:23;;;;;;;18.15;16.25;;;;;;;18.83;100.00;63947.72;4833465;29;20221;-77
2023/09/07 02:26:50;;;;;;;18.92;15.60;;;;;;;18.83;100.00;63945.16;4835660;29;20232;-76
2023/09/07 02:29:17;;;;;;;17.75;15.70;;;;;;;18.81;100.00;63945.13;4827993;29;20206;-76
2023/09/07 02:31:45;;;;;;;16.38;14.65;;;;;;;18.73;100.00;63939.88;4828791;29;20214;-75
2023/09/07 02:34:12;;;;;;;20.98;14.20;;;;;;;18.74;100.00;63940.94;4836403;29;20200;-76
2023/09/07 02:36:39;;;;;;;15.73;13.98;;;;;;;18.71;100.00;63930.06;4825919;29;20228;-75
2023/09/07 02:39:08;;;;;;;15.63;14.00;;;;;;;18.68;100.00;63926.41;4833977;29;20236;-76
2023/09/07 02:41:35;;;;;;;14.60;13.10;;;;;;;18.60;100.00;63921.19;4836825;29;20243;-76
2023/09/07 02:44:02;;;;;;;16.67;14.98;;;;;;;18.59;100.00;63922.19;4833495;29;20197;-76
2023/09/07 02:46:30;;;;;;;17.17;14.23;;;;;;;18.57;100.00;63912.38;4834785;29;20228;-77
2023/09/07 02:48:59;;;;;;;18.40;14.68;;;;;;;18.49;100.00;63912.28;4833063;29;20546;-77
2023/09/07 02:51:26;;;;;;;18.30;15.02;;;;;;;18.47;100.00;63912.25;4819344;29;20266;-76
2023/09/07 02:53:53;;;;;;;16.25;14.57;;;;;;;18.49;100.00;63911.78;4832596;29;20216;-76
2023/09/07 02:56:20;;;;;;;14.70;13.23;;;;;;;18.49;100.00;63912.28;4828818;29;20237;-75
2023/09/07 02:58:46;;;;;;;16.65;14.90;;;;;;;18.49;100.00;63912.28;4834544;29;20244;-75
2023/09/07 03:01:14;;;;;;;16.83;15.15;;;;;;;18.46;100.00;63906.06;4828323;29;20229;-75
2023/09/07 03:03:42;;;;;;;16.52;14.35;;;;;;;18.51;100.00;63911.28;4830959;29;20208;-76
2023/09/07 03:06:12;;;;;;;16.67;14.82;;;;;;;18.45;100.00;63905.53;4830686;29;20459;-76
2023/09/07 03:08:40;;;;;;;17.30;15.52;;;;;;;18.39;100.00;63901.84;4834878;29;20221;-76
2023/09/07 03:11:08;;;;;;;16.80;15.00;;;;;;;18.43;100.00;63908.63;4824716;29;20385;-76
2023/09/07 03:13:35;;;;;;;15.13;13.60;;;;;;;18.43;100.00;63903.47;4833847;29;20205;-76
2023/09/07 03:16:03;;;;;;;20.52;16.30;;;;;;;18.37;100.00;63899.78;4834120;29;20280;-77
2023/09/07 03:18:30;;;;;;;18.45;14.27;;;;;;;18.42;100.00;63902.41;4833768;29;20312;-76
2023/09/07 03:21:00;;;;;;;17.00;14.68;;;;;;;18.40;100.00;63906.03;4826442;29;20241;-76
2023/09/07 03:23:28;;;;;;;20.17;16.13;;;;;;;18.35;100.00;63898.22;4830440;29;20250;-75
2023/09/07 03:25:55;;;;;;;18.13;15.95;;;;;;;18.35;100.00;63903.38;4825860;29;20248;-76
2023/09/07 03:28:22;;;;;;;18.90;15.88;;;;;;;18.32;100.00;63894.56;4826772;29;20234;-75
2023/09/07 03:30:49;;;;;;;17.05;15.30;;;;;;;18.28;100.00;63890.38;4829887;29;20229;-76
2023/09/07 03:33:16;;;;;;;17.13;15.27;;;;;;;18.30;100.00;63887.84;4832138;29;20518;-75
2023/09/07 03:35:43;;;;;;;19.50;16.23;;;;;;;18.34;100.00;63896.66;4831003;29;20350;-75
2023/09/07 03:38:09;;;;;;;19.10;17.05;;;;;;;18.31;100.00;63891.47;4821695;29;20241;-75
2023/09/07 03:40:37;;;;;;;18.42;16.38;;;;;;;18.31;100.00;63888.34;4821250;29;20233;-76
2023/09/07 03:43:03;;;;;;;18.50;15.82;;;;;;;18.28;100.00;63885.75;4832923;29;20246;-76
2023/09/07 03:45:30;;;;;;;18.15;15.60;;;;;;;18.33;100.00;63898.69;4834186;29;20537;-76
2023/09/07 03:47:57;;;;;;;18.00;14.98;;;;;;;18.34;100.00;63896.66;4817509;29;20408;-76
2023/09/07 03:50:24;;;;;;;22.33;16.73;;;;;;;18.34;100.00;63892.00;4830787;29;20288;-75
2023/09/07 03:52:51;;;;;;;15.55;13.95;;;;;;;18.37;100.00;63897.72;4834477;29;20501;-76
2023/09/07 03:55:18;;;;;;;18.45;16.15;;;;;;;18.35;100.00;63900.25;4834719;29;20256;-75
2023/09/07 03:57:46;;;;;;;18.65;15.73;;;;;;;18.29;100.00;63891.44;4834505;29;20213;-77
2023/09/07 04:00:15;;;;;;;18.10;15.77;;;;;;;18.28;100.00;63890.91;4831981;29;20300;-75
2023/09/07 04:02:42;;;;;;;16.63;14.85;;;;;;;18.22;100.00;63886.72;4831944;29;20206;-77
2023/09/07 04:05:11;;;;;;;16.52;14.80;;;;;;;18.25;100.00;63885.22;4816822;29;20279;-76
2023/09/07 04:07:38;;;;;;;16.40;14.30;;;;;;;18.23;100.00;63885.72;4816115;29;20465;-76
2023/09/07 04:10:05;;;;;;;16.27;14.55;;;;;;;18.20;100.00;63882.59;4830805;29;20587;-75
2023/09/07 04:12:33;;;;;;;17.67;15.15;;;;;;;18.14;100.00;63876.31;4829117;29;20213;-76
2023/09/07 04:15:02;;;;;;;16.65;14.88;;;;;;;18.15;100.00;63874.78;4828158;29;20233;-76
2023/09/07 04:17:29;;;;;;;16.00;14.30;;;;;;;18.19;100.00;63878.44;4822480;29;20209;-76
2023/09/07 04:19:56;;;;;;;17.50;14.20;;;;;;;18.21;100.00;63881.03;4834041;29;20236;-77
2023/09/07 04:22:23;;;;;;;13.75;12.55;;;;;;;18.17;100.00;63873.78;4833849;29;20470;-76
2023/09/07 04:24:50;;;;;;;13.82;12.38;;;;;;;18.19;100.00;63881.00;4835740;29;20541;-77
2023/09/07 04:27:17;;;;;;;15.05;12.30;;;;;;;18.22;100.00;63876.41;4835615;29;20213;-76
2023/09/07 04:29:44;;;;;;;13.75;12.25;;;;;;;18.23;100.00;63885.72;4841012;29;20228;-76
2023/09/07 04:32:12;;;;;;;15.68;12.57;;;;;;;18.15;100.00;63874.78;4847847;29;20243;-76
2023/09/07 04:34:39;;;;;;;16.08;13.30;;;;;;;18.22;100.00;63879.00;4847240;29;20232;-76
2023/09/07 04:37:06;;;;;;;14.40;12.90;;;;;;;18.30;100.00;63892.47;4844995;29;20209;-77
2023/09/07 04:39:34;;;;;;;13.52;12.13;;;;;;;18.30;100.00;63892.47;4840966;29;20341;-77
2023/09/07 04:42:01;;;;;;;14.63;12.70;;;;;;;18.35;100.00;63893.06;4838078;29;20241;-79
2023/09/07 04:44:28;;;;;;;12.60;11.27;;;;;;;18.31;100.00;63888.34;4834930;29;20208;-76
2023/09/07 04:46:56;;;;;;;13.50;11.60;;;;;;;18.39;100.00;63902.38;4837801;29;20221;-76
2023/09/07 04:49:26;;;;;;;17.02;12.52;;;;;;;18.39;100.00;63896.69;4837125;29;20262;-76
2023/09/07 04:51:54;;;;;;;11.73;10.38;;;;;;;18.38;100.00;63901.34;4838041;29;20235;-76
2023/09/07 04:54:21;;;;;;;12.98;11.68;;;;;;;18.40;100.00;63903.44;4832911;29;20251;-74
2023/09/07 04:56:47;;;;;;;11.43;10.32;;;;;;;18.46;100.00;63904.03;4835361;29;20526;-75
2023/09/07 04:59:14;;;;;;;11.77;10.57;;;;;;;18.48;100.00;63910.72;4836022;29;20576;-75
2023/09/07 05:01:41;;;;;;;12.23;10.20;;;;;;;18.53;100.00;63913.91;4837760;29;20276;-75
2023/09/07 05:04:08;;;;;;;11.50;10.20;;;;;;;18.58;100.00;63916.00;4833904;29;20209;-76
2023/09/07 05:06:38;;;;;;;12.63;10.23;;;;;;;18.64;100.00;63932.56;4834955;29;20228;-76
2023/09/07 05:09:05;;;;;;;10.63;9.65;;;;;;;18.73;100.00;63934.19;4819937;29;20216;-76
2023/09/07 05:11:34;;;;;;;10.18;8.32;;;;;;;18.74;100.00;63935.75;4820947;29;20397;-77
2023/09/07 05:14:01;;;;;;;8.32;7.63;;;;;;;18.74;100.00;63940.94;4835995;29;20276;-77
2023/09/07 05:16:28;;;;;;;8.18;7.47;;;;;;;18.87;100.00;63951.91;4834787;29;20256;-76
2023/09/07 05:18:55;;;;;;;8.95;8.10;;;;;;;18.90;100.00;63949.88;4818480;29;20578;-75
2023/09/07 05:21:22;;;;;;;9.15;8.23;;;;;;;18.91;100.00;63958.13;4827657;29;20232;-75
2023/09/07 05:23:51;;;;;;;12.27;8.05;;;;;;;19.02;100.00;63967.53;4832147;29;20220;-77
2023/09/07 05:26:22;;;;;;;8.80;8.07;;;;;;;19.12;100.00;63970.22;4832745;29;20263;-77
2023/09/07 05:28:49;;;;;;;11.27;6.90;;;;;;;19.21;100.00;63984.25;4837283;29;20236;-77
2023/09/07 05:31:16;;;;;;;7.45;6.75;;;;;;;19.17;100.00;63982.66;4835558;29;20518;-76
2023/09/07 05:33:43;;;;;;;7.40;6.65;;;;;;;19.19;100.00;63985.25;4833364;29;20262;-76
2023/09/07 05:36:10;;;;;;;8.07;7.28;;;;;;;19.27;100.00;63993.63;4829833;29;20233;-76
2023/09/07 05:38:37;;;;;;;9.75;8.15;;;;;;;19.35;100.00;64004.56;4823159;29;20332;-76
2023/09/07 05:41:07;;;;;;;7.70;6.90;;;;;;;19.51;100.00;64018.66;4829211;29;20284;-77
2023/09/07 05:43:34;;;;;;;7.85;6.82;;;;;;;19.58;100.00;64020.28;4823510;29;20197;-77
2023/09/07 05:46:01;;;;;;;7.22;6.63;;;;;;;19.54;98.63;64021.78;4842557;29;20236;-77
2023/09/07 05:48:28;;;;;;;7.75;6.15;;;;;;;19.54;98.06;64016.09;4833548;29;20209;-77
2023/09/07 05:50:55;;;;;;;6.75;6.25;;;;;;;19.53;100.00;64020.72;4838844;29;20233;-76
2023/09/07 05:53:24;;;;;;;6.85;6.35;;;;;;;19.63;100.00;64033.22;4828696;29;20220;-76
2023/09/07 05:55:51;;;;;;;8.35;6.65;;;;;;;19.64;98.69;64026.50;4817131;29;20292;-76
2023/09/07 05:58:19;;;;;;;7.65;6.32;;;;;;;19.74;99.90;64041.59;4840321;29;20366;-76
2023/09/07 06:00:46;;;;;;;7.88;6.78;;;;;;;19.78;98.27;64040.59;4837724;29;20229;-76
2023/09/07 06:03:13;;;;;;;6.95;6.35;;;;;;;19.85;97.56;64051.00;4825155;29;20201;-76
2023/09/07 06:05:40;;;;;;;6.95;6.25;;;;;;;20.09;97.87;64075.53;4833152;29;20217;-75
2023/09/07 06:08:07;;;;;;;7.03;6.38;;;;;;;20.34;96.63;64104.22;4822543;29;20254;-76
2023/09/07 06:10:34;;;;;;;6.88;6.20;;;;;;;20.70;95.33;64139.22;4817516;29;20268;-75
2023/09/07 06:13:01;;;;;;;8.75;6.53;;;;;;;21.00;90.72;64170.53;4827636;29;20220;-77
2023/09/07 06:15:30;;;;;;;6.90;6.10;;;;;;;21.16;88.39;64184.13;4832142;29;20300;-77
2023/09/07 06:17:57;;;;;;;6.82;5.95;;;;;;;21.26;86.95;64195.09;4836010;29;20213;-77
2023/09/07 06:20:24;;;;;;;9.25;6.47;;;;;;;21.41;85.07;64212.84;4821683;29;20245;-77
2023/09/07 06:22:51;;;;;;;9.30;5.38;;;;;;;21.41;83.87;64218.03;4822519;29;20531;-76
2023/09/07 06:25:18;;;;;;;7.13;6.43;;;;;;;21.37;85.53;64208.66;4827939;29;20233;-77
2023/09/07 06:27:45;;;;;;;8.25;6.53;;;;;;;21.28;85.48;64204.44;4823392;29;20221;-76
2023/09/07 06:30:12;;;;;;;8.35;6.60;;;;;;;21.34;nan;64208.13;4834472;29;20236;-76
2023/09/07 06:32:42;;;;;;;9.45;6.57;;;;;;;21.58;86.06;64233.72;4837397;29;20265;-77
2023/09/07 06:35:10;;;;;;;7.30;6.60;;;;;;;21.78;81.00;64254.09;4834790;29;20229;-77
2023/09/07 06:37:40;;;;;;;8.80;6.38;;;;;;;21.97;80.86;64273.97;4831016;29;20267;-77
2023/09/07 06:40:09;;;;;;;9.73;8.32;;;;;;;22.12;79.17;64292.25;4830328;29;20238;-77
2023/09/07 06:42:36;;;;;;;10.30;9.30;;;;;;;22.25;80.13;64300.09;4832210;29;20209;-78
2023/09/07 06:45:03;;;;;;;8.85;7.90;;;;;;;22.39;78.40;64317.34;4825064;29;20480;-77
2023/09/07 06:47:30;;;;;;;7.70;6.93;;;;;;;22.65;77.58;64345.06;4826335;29;20212;-78
2023/09/07 06:49:59;;;;;;;9.10;6.25;;;;;;;22.75;74.05;64352.94;4829588;29;20286;-78
2023/09/07 06:52:26;;;;;;;8.13;7.25;;;;;;;22.97;74.31;64378.00;4830700;29;20201;-78
2023/09/07 06:54:54;;;;;;;6.85;6.25;;;;;;;23.17;74.45;64398.94;4834514;29;20232;-78
2023/09/07 06:57:21;;;;;;;8.50;7.68;;;;;;;23.25;71.47;64407.28;4836117;29;20230;-77
2023/09/07 06:59:49;;;;;;;7.30;6.68;;;;;;;23.30;70.33;64409.94;4832853;29;20232;-76
2023/09/07 07:02:15;;;;;;;9.20;7.25;;;;;;;23.32;70.58;64417.22;4830011;29;20361;-80
2023/09/07 07:04:43;;;;;;;9.07;7.50;;;;;;;23.47;69.30;64424.63;4824835;29;20262;-78
2023/09/07 07:07:12;;;;;;;12.95;7.03;;;;;;;23.50;69.40;64427.75;4836423;29;20206;-78
2023/09/07 07:09:39;;;;;;;7.43;6.70;;;;;;;23.58;67.05;64441.84;4833532;29;20225;-78
2023/09/07 07:12:07;;;;;;;8.88;6.57;;;;;;;23.29;67.30;64416.16;4826727;29;20468;-80
2023/09/07 07:14:34;;;;;;;7.90;6.70;;;;;;;23.19;68.73;64403.09;4840199;29;20209;-77
2023/09/07 07:17:01;;;;;;;8.77;6.60;;;;;;;22.99;67.50;64380.09;4838711;29;20284;-78
2023/09/07 07:19:29;;;;;;;7.95;7.28;;;;;;;22.83;69.34;64363.38;4829183;29;20244;-78
2023/09/07 07:21:56;;;;;;;7.13;6.47;;;;;;;22.78;71.89;64358.66;4835437;29;20197;-78
2023/09/07 07:24:24;;;;;;;7.70;7.10;;;;;;;22.87;71.88;64370.13;4831638;29;20431;-78
2023/09/07 07:26:51;;;;;;;7.18;6.43;;;;;;;22.82;71.20;64364.91;4833606;29;20456;-78
2023/09/07 07:29:18;;;;;;;7.28;6.57;;;;;;;22.83;71.16;64366.47;4834973;29;20262;-78
2023/09/07 07:31:45;;;;;;;6.95;6.38;;;;;;;22.58;70.10;64337.22;4835959;29;20275;-79
2023/09/07 07:34:12;;;;;;;6.90;6.40;;;;;;;22.56;73.14;64335.66;4838078;29;20346;-78
2023/09/07 07:36:39;;;;;;;9.48;8.48;;;;;;;22.55;77.15;64329.44;4836272;29;20229;-78
2023/09/07 07:39:08;;;;;;;8.50;7.68;;;;;;;22.56;80.10;64333.06;4841113;29;20372;-78
2023/09/07 07:41:37;;;;;;;9.13;8.23;;;;;;;22.60;81.08;64334.66;4826801;29;20541;-78
2023/09/07 07:44:04;;;;;;;9.07;8.25;;;;;;;22.61;81.18;64340.34;4830752;29;20431;-78
2023/09/07 07:46:31;;;;;;;10.90;8.00;;;;;;;22.36;81.17;64314.75;4827067;29;20469;-79
2023/09/07 07:48:58;;;;;;;8.68;7.88;;;;;;;22.24;82.86;64301.66;4825481;29;20213;-78
2023/09/07 07:51:26;;;;;;;8.80;8.00;;;;;;;22.31;85.11;64304.31;4826748;29;20231;-78
2023/09/07 07:53:54;;;;;;;9.05;7.78;;;;;;;22.41;83.96;64317.38;4828112;29;20211;-77
2023/09/07 07:56:21;;;;;;;10.15;8.43;;;;;;;22.41;86.04;64319.44;4823521;29;20236;-77
2023/09/07 07:58:51;;;;;;;11.68;8.60;;;;;;;22.49;83.46;64328.31;4825795;29;20228;-78
2023/09/07 08:01:18;;;;;;;8.75;7.95;;;;;;;22.23;82.72;64303.19;4825484;29;20243;-78
2023/09/07 08:03:45;;;;;;;8.75;7.90;;;;;;;22.20;82.37;64298.00;4829244;29;20209;-77
2023/09/07 08:06:12;;;;;;;9.45;8.55;;;;;;;22.39;82.44;64315.28;4832334;29;20239;-78
2023/09/07 08:08:40;;;;;;;9.02;7.95;;;;;;;22.62;81.01;64344.00;4830017;29;20205;-78
2023/09/07 08:11:07;;;;;;;9.05;8.15;;;;;;;22.90;80.50;64373.28;4831564;29;20271;-78
2023/09/07 08:13:34;;;;;;;11.85;8.68;;;;;;;23.08;78.92;64386.38;4831837;29;20208;-78
2023/09/07 08:16:04;;;;;;;8.63;7.93;;;;;;;23.07;77.18;64391.06;4830357;29;20243;-79
2023/09/07 08:18:35;;;;;;;10.70;8.50;;;;;;;23.29;76.92;64408.91;4832426;29;20218;-77
2023/09/07 08:21:02;;;;;;;8.35;7.55;;;;;;;23.53;75.15;64436.59;4826607;29;20293;-78
2023/09/07 08:23:29;;;;;;;8.55;7.75;;;;;;;23.45;73.72;64428.22;4830490;29;20213;-78
2023/09/07 08:25:56;;;;;;;10.00;8.38;;;;;;;23.72;73.33;64458.56;4830871;29;20236;-78
2023/09/07 08:28:23;;;;;;;7.82;7.22;;;;;;;24.03;67.94;64480.63;4827311;29;20272;-80
2023/09/07 08:30:53;;;;;;;9.35;7.28;;;;;;;24.21;66.27;64515.09;4832986;29;20229;-77
2023/09/07 08:33:28;;;;;;;8.57;7.85;;;;;;;24.40;66.33;64524.53;4832401;29;20210;-79
2023/09/07 08:35:55;;;;;;;8.45;7.65;;;;;;;24.35;66.38;64518.78;4833204;29;20255;-79
2023/09/07 08:38:25;;;;;;;7.80;6.97;;;;;;;24.64;64.45;64554.38;4831734;29;20205;-79
2023/09/07 08:40:55;;;;;;;9.05;8.13;;;;;;;24.83;62.15;64566.47;4831837;29;20244;-78
2023/09/07 08:43:23;;;;;;;9.15;6.88;;;;;;;24.94;59.66;64583.72;4832876;29;20208;-79
2023/09/07 08:45:59;;;;;;;6.20;5.75;;;;;;;24.90;56.49;64579.53;4828789;29;20224;-77
2023/09/07 08:48:30;;;;;;;6.50;6.00;;;;;;;24.50;59.13;64532.41;4825441;29;20213;-78
2023/09/07 08:50:57;;;;;;;6.70;6.20;;;;;;;24.58;58.58;64546.00;4829612;29;20548;-78
2023/09/07 08:53:25;;;;;;;6.55;6.15;;;;;;;24.74;58.59;64562.25;4826821;29;20212;-78
2023/09/07 08:55:53;;;;;;;7.68;6.63;;;;;;;24.79;57.97;64564.88;4827851;29;20229;-78
2023/09/07 08:58:20;;;;;;;6.80;6.30;;;;;;;24.87;57.51;64573.78;4831107;29;20205;-78
2023/09/07 09:00:49;;;;;;;8.43;6.40;;;;;;;24.86;56.53;64577.94;4831631;29;23065;-78
2023/09/07 09:03:16;;;;;;;8.85;5.93;;;;;;;24.80;55.73;64569.06;4830008;29;20205;-78
2023/09/07 09:05:45;;;;;;;7.93;7.03;;;;;;;24.89;57.67;64575.34;4825047;29;20229;-79
2023/09/07 09:08:12;;;;;;;7.03;6.47;;;;;;;25.05;58.61;64594.72;4832517;29;20212;-78
2023/09/07 09:10:40;;;;;;;8.32;7.53;;;;;;;25.01;57.34;64593.66;4830992;29;20237;-77
2023/09/07 09:13:07;;;;;;;5.03;4.63;;;;;;;24.90;52.23;64581.63;4840527;29;20211;-78
2023/09/07 09:15:33;;;;;;;6.50;6.00;;;;;;;24.81;54.00;64574.78;4837311;29;20281;-78
2023/09/07 09:18:11;;;;;;;5.85;5.43;;;;;;;24.96;54.48;64585.28;4838938;29;20201;-78
2023/09/07 09:20:40;;;;;;;5.60;4.75;;;;;;;25.07;52.57;64594.72;4833762;29;20235;-77
2023/09/07 09:23:08;;;;;;;5.45;5.00;;;;;;;25.11;52.59;64601.00;4833365;29;20206;-79
2023/09/07 09:25:35;;;;;;;6.10;5.55;;;;;;;25.14;52.67;64606.75;4839140;29;20228;-79
2023/09/07 09:28:03;;;;;;;6.53;5.93;;;;;;;25.22;53.34;64609.91;4835088;29;20198;-80
2023/09/07 09:30:30;;;;;;;6.03;5.47;;;;;;;25.14;53.23;64607.28;4826362;29;20233;-77
2023/09/07 09:32:59;;;;;;;6.97;6.00;;;;;;;25.35;54.13;64623.53;4824363;29;20213;-78
2023/09/07 09:35:27;;;;;;;6.80;6.30;;;;;;;25.52;52.64;64638.78;4824658;29;20236;-78
2023/09/07 09:37:54;;;;;;;6.80;6.30;;;;;;;25.26;52.91;64616.72;4823510;29;20387;-79
2023/09/07 09:40:23;;;;;;;8.48;6.57;;;;;;;25.42;53.11;64632.97;4822008;29;20237;-78
2023/09/07 09:42:53;;;;;;;7.40;6.00;;;;;;;25.43;53.71;64634.03;4830082;29;20266;-79
2023/09/07 09:45:21;;;;;;;7.60;6.10;;;;;;;25.11;52.83;64598.91;4829100;29;20225;-78
2023/09/07 09:47:51;;;;;;;6.85;6.13;;;;;;;25.36;54.46;64624.59;4828761;29;20319;-79
2023/09/07 09:50:20;;;;;;;7.10;6.45;;;;;;;25.75;52.42;64664.94;4828940;29;20396;-78
2023/09/07 09:52:48;;;;;;;7.03;6.38;;;;;;;25.94;51.26;64690.06;4825860;29;20210;-77
2023/09/07 09:55:16;;;;;;;7.53;6.45;;;;;;;25.90;50.79;64678.06;4826695;29;20286;-78
2023/09/07 09:57:45;;;;;;;8.10;6.05;;;;;;;26.13;51.11;64705.31;4828484;29;20223;-78
2023/09/07 10:00:25;;;;;;;5.70;5.20;;;;;;;26.11;49.86;64711.03;4824956;29;20246;-78
2023/09/07 10:02:59;;;;;;;4.43;4.13;;;;;;;26.32;46.66;64729.41;4828892;29;20276;-79
2023/09/07 10:05:30;;;;;;;5.00;4.60;;;;;;;26.55;47.79;64753.53;4824618;29;20227;-79
2023/09/07 10:08:05;;;;;;;4.57;4.28;;;;;;;26.04;45.25;64698.50;4829298;29;20213;-79
2023/09/07 10:10:43;;;;;;;5.70;4.85;;;;;;;26.10;46.23;64704.25;4826661;29;20271;-79
2023/09/07 10:13:15;;;;;;;5.05;4.63;;;;;;;26.11;44.43;64705.81;4825589;29;20213;-78
2023/09/07 10:15:42;;;;;;;3.97;3.67;;;;;;;26.21;45.60;64715.78;4823301;29;20233;-79
2023/09/07 10:18:15;;;;;;;5.97;4.18;;;;;;;26.06;46.09;64700.06;4825746;29;20277;-77
2023/09/07 10:20:55;;;;;;;4.78;4.22;;;;;;;25.74;46.51;64664.44;4829791;29;20258;-80
2023/09/07 10:23:23;;;;;;;4.50;4.30;;;;;;;25.72;46.15;64662.31;4832261;29;20208;-78
2023/09/07 10:25:52;;;;;;;8.60;4.47;;;;;;;25.79;46.11;64676.97;4834571;29;20256;-78
2023/09/07 10:28:29;;;;;;;4.60;4.28;;;;;;;26.15;46.62;64707.41;4837031;29;20227;-81
2023/09/07 10:31:00;;;;;;;4.55;4.20;;;;;;;25.84;43.98;64679.59;4828728;29;20225;-79
2023/09/07 10:33:27;;;;;;;5.80;4.00;;;;;;;25.70;45.35;64659.69;4828300;29;20232;-78
2023/09/07 10:35:54;;;;;;;4.55;4.15;;;;;;;25.66;46.47;64658.63;4827541;29;20285;-79
2023/09/07 10:38:20;;;;;;;5.20;4.20;;;;;;;25.53;45.89;64645.03;4827931;29;20204;-79
2023/09/07 10:40:49;;;;;;;4.53;4.20;;;;;;;25.33;45.85;64626.66;4831685;29;20286;-79
2023/09/07 10:43:15;;;;;;;6.03;4.93;;;;;;;25.68;45.82;64662.84;4829952;29;20208;-80
2023/09/07 10:45:47;;;;;;;9.07;5.45;;;;;;;25.89;45.44;64679.59;4828528;29;20240;-79
2023/09/07 10:48:14;;;;;;;4.72;4.38;;;;;;;25.68;45.06;64663.34;4822650;29;20438;-78
2023/09/07 10:50:45;;;;;;;4.82;4.43;;;;;;;25.39;46.01;64624.59;4825417;29;20256;-79
2023/09/07 10:53:14;;;;;;;5.47;4.80;;;;;;;25.00;47.18;64592.09;4826384;29;20220;-80
2023/09/07 10:55:43;;;;;;;7.47;5.43;;;;;;;24.61;48.62;64551.75;4830413;29;20249;-79
2023/09/07 10:58:10;;;;;;;5.28;4.80;;;;;;;24.54;48.82;64543.91;4829880;29;20205;-79
2023/09/07 11:00:37;;;;;;;5.53;4.95;;;;;;;24.81;50.42;64569.59;4830794;29;20242;-79
2023/09/07 11:03:10;;;;;;;6.95;5.55;;;;;;;25.14;51.55;64609.88;4838254;29;20232;-78
2023/09/07 11:05:39;;;;;;;5.75;5.32;;;;;;;25.38;50.25;64626.72;4831512;29;20283;-79
2023/09/07 11:08:08;;;;;;;5.55;5.15;;;;;;;25.57;50.04;64654.44;4837318;29;20204;-78
2023/09/07 11:10:36;;;;;;;6.80;5.55;;;;;;;25.81;49.02;64676.44;4834056;29;20230;-79
2023/09/07 11:13:05;;;;;;;5.57;5.03;;;;;;;25.94;48.34;64687.47;4836091;29;20206;-78
2023/09/07 11:15:33;;;;;;;7.47;5.32;;;;;;;25.89;47.44;64682.75;4828332;29;20243;-80
2023/09/07 11:18:05;;;;;;;5.72;5.22;;;;;;;25.84;47.85;64680.13;4827092;29;20209;-80
2023/09/07 11:20:34;;;;;;;5.38;4.97;;;;;;;25.67;48.35;64656.56;4823164;29;20245;-79
2023/09/07 11:23:01;;;;;;;6.53;5.97;;;;;;;25.68;49.28;64662.84;4824731;29;20513;-78
2023/09/07 11:25:28;;;;;;;6.78;5.40;;;;;;;25.52;48.80;64641.38;4828230;29;20232;-79